Snipesville, Georgia
Current Conditions -  °F | °C
As of 2:15 PM on Monday 20 Oct 2014 (Local Time) from KAZE Reporting Station
Overcast Overcast  
Wind Chill: 76°   Ceiling: 3900
Heat Index: 78°   Visibility: 10mi
Dew Point: 61°   Wind: 5mph
Humidity: 59%   Direction: 140°SE
Pressure: 30.02"   Gusts: NA
Location:  31.7492°N, 82.7291°W
Report Text: KAZE 201815Z AUTO 14004KT 10SM OVC039 25/16 A3002 RMK AO2 T02460162
Loading
Personal Weather Stations






























Interactive Weather Map
Tropical Storm Tracking
New forecast layout! Learn more

10-Day Weather Forecast

Advertisements
Track Severe Weather on mobile